Time;durP1;ratioP1;P1;durP2;ratioP2;P2;SDS_P1;SDS_P2;PMS_P1;PMS_P2;Temp;Humidity;BMP_temperature;BMP_pressure;BME280_temperature;BME280_humidity;BME280_pressure;Samples;Min_cycle;Max_cycle;Signal;HPM_P1;HPM_P2
2022/08/15 00:01:37;;;;;;;;;;;;;;;25.97;47.00;100541.53;5053472;28;20483;-53
2022/08/15 00:04:04;;;;;;;;;;;;;;;25.94;47.00;100545.47;5054241;28;19932;-55
2022/08/15 00:06:41;;;;;;;;;;;;;;;25.91;47.19;100540.47;5056367;28;19916;-54
2022/08/15 00:09:18;;;;;;;;;;;;;;;25.90;47.62;100556.84;5048384;28;19924;-53
2022/08/15 00:11:45;;;;;;;;;;;;;;;25.87;47.24;100545.41;5045947;28;20494;-53
2022/08/15 00:14:13;;;;;;;;;;;;;;;25.86;47.34;100561.81;5054545;28;19932;-53
2022/08/15 00:16:39;;;;;;;;;;;;;;;25.85;47.54;100554.75;5047501;28;20367;-55
2022/08/15 00:19:24;;;;;;;;;;;;;;;25.83;47.48;100549.53;5053831;28;19938;-54
2022/08/15 00:21:54;;;;;;;;;;;;;;;25.82;47.58;100545.16;5053771;28;20310;-53
2022/08/15 00:24:22;;;;;;;;;;;;;;;25.82;47.68;100541.66;5046940;28;20074;-55
2022/08/15 00:26:49;;;;;;;;;;;;;;;25.81;47.79;100538.09;5050623;28;20376;-56
2022/08/15 00:29:15;;;;;;;;;;;;;;;25.79;47.86;100537.47;5048438;28;20062;-52
2022/08/15 00:31:41;;;;;;;;;;;;;;;25.78;47.88;100535.81;5051677;28;19932;-56
2022/08/15 00:34:07;;;;;;;;;;;;;;;25.78;47.92;100524.19;5048785;28;20490;-52
2022/08/15 00:36:32;;;;;;;;;;;;;;;25.78;47.76;100525.03;5046620;28;19959;-55
2022/08/15 00:38:59;;;;;;;;;;;;;;;25.75;47.72;100525.44;5048104;28;20291;-52
2022/08/15 00:41:40;;;;;;;;;;;;;;;25.71;47.93;100524.13;5051658;28;19925;-56
2022/08/15 00:44:19;;;;;;;;;;;;;;;25.68;48.06;100525.38;5053708;28;19989;-54
2022/08/15 00:46:56;;;;;;;;;;;;;;;25.67;48.15;100534.47;5046483;28;19924;-53
2022/08/15 00:49:22;;;;;;;;;;;;;;;25.64;48.30;100523.25;5051968;28;19925;-53
2022/08/15 00:51:57;;;;;;;;;;;;;;;25.61;48.10;100524.47;5051581;28;20379;-53
2022/08/15 00:54:28;;;;;;;;;;;;;;;25.60;48.33;100522.78;5050538;28;19925;-57
2022/08/15 00:56:59;;;;;;;;;;;;;;;25.58;48.33;100519.47;5048366;28;19927;-53
2022/08/15 00:59:27;;;;;;;;;;;;;;;25.56;48.40;100522.34;5048611;28;20923;-52
2022/08/15 01:01:53;;;;;;;;;;;;;;;25.54;48.37;100523.59;5047715;28;19921;-56
2022/08/15 01:04:18;;;;;;;;;;;;;;;25.53;48.66;100524.59;5049806;28;19932;-53
2022/08/15 01:06:45;;;;;;;;;;;;;;;25.53;48.58;100527.31;5049990;28;19987;-54
2022/08/15 01:09:12;;;;;;;;;;;;;;;25.51;48.74;100534.75;5053897;28;19922;-52
2022/08/15 01:11:41;;;;;;;;;;;;;;;25.49;48.78;100534.91;5048443;28;19924;-54
2022/08/15 01:14:07;;;;;;;;;;;;;;;25.49;48.75;100537.59;5045128;28;20022;-53
2022/08/15 01:16:33;;;;;;;;;;;;;;;25.50;48.75;100538.47;5049613;28;19967;-52
2022/08/15 01:18:58;;;;;;;;;;;;;;;25.49;48.74;100543.00;5039803;28;19927;-54
2022/08/15 01:21:32;;;;;;;;;;;;;;;25.47;49.00;100539.69;5054593;28;19921;-57
2022/08/15 01:24:08;;;;;;;;;;;;;;;25.45;49.03;100536.34;5051069;28;19928;-55
2022/08/15 01:26:33;;;;;;;;;;;;;;;25.42;49.19;100542.09;5047188;28;19920;-53
2022/08/15 01:29:00;;;;;;;;;;;;;;;25.40;48.97;100533.34;5051659;28;19931;-53
2022/08/15 01:31:26;;;;;;;;;;;;;;;25.39;49.18;100539.75;5044824;28;20287;-55
2022/08/15 01:33:53;;;;;;;;;;;;;;;25.36;49.28;100548.22;5045133;28;20384;-55
2022/08/15 01:36:20;;;;;;;;;;;;;;;25.33;49.30;100543.25;5054115;28;19924;-55
2022/08/15 01:38:48;;;;;;;;;;;;;;;25.32;49.51;100546.94;5055786;28;19929;-54
2022/08/15 01:41:33;;;;;;;;;;;;;;;25.30;49.60;100551.69;5049118;28;20012;-54
2022/08/15 01:44:01;;;;;;;;;;;;;;;25.27;49.50;100540.28;5046258;28;19967;-54
2022/08/15 01:46:30;;;;;;;;;;;;;;;25.26;49.79;100544.00;5033341;28;19924;-55
2022/08/15 01:49:08;;;;;;;;;;;;;;;25.24;49.89;100535.25;5045863;28;20006;-53
2022/08/15 01:51:33;;;;;;;;;;;;;;;25.21;49.78;100535.63;5041661;28;19955;-56
2022/08/15 01:54:04;;;;;;;;;;;;;;;25.19;49.91;100545.75;5046976;28;19924;-55
2022/08/15 01:56:32;;;;;;;;;;;;;;;25.19;50.13;100543.06;5046459;28;19927;-53
2022/08/15 01:59:01;;;;;;;;;;;;;;;25.17;50.01;100537.06;5050543;28;21128;-56
2022/08/15 02:01:55;;;;;;;;;;;;;;;25.16;50.18;100543.47;5049964;28;20350;-56
2022/08/15 02:04:23;;;;;;;;;;;;;;;25.14;50.35;100537.44;5011538;28;20022;-55
2022/08/15 02:06:48;;;;;;;;;;;;;;;25.14;50.07;100533.91;5049771;28;19967;-55
2022/08/15 02:09:15;;;;;;;;;;;;;;;25.12;50.11;100528.72;5048835;28;19966;-54
2022/08/15 02:11:41;;;;;;;;;;;;;;;25.10;50.35;100528.91;5046767;28;19925;-55
2022/08/15 02:14:06;;;;;;;;;;;;;;;25.09;50.40;100532.63;5045142;28;19924;-56
2022/08/15 02:16:35;;;;;;;;;;;;;;;25.07;50.44;100525.75;5053550;28;20158;-57
2022/08/15 02:19:02;;;;;;;;;;;;;;;25.04;50.53;100529.66;5055013;28;19916;-55
2022/08/15 02:21:27;;;;;;;;;;;;;;;25.01;50.84;100523.84;5055577;28;19928;-54
2022/08/15 02:23:52;;;;;;;;;;;;;;;24.98;50.90;100529.59;5051212;28;19931;-53
2022/08/15 02:26:17;;;;;;;;;;;;;;;24.96;51.09;100525.22;5053915;28;19925;-55
2022/08/15 02:28:43;;;;;;;;;;;;;;;24.96;51.09;100527.06;5054144;28;20378;-54
2022/08/15 02:31:11;;;;;;;;;;;;;;;24.94;51.16;100524.56;5044071;28;21249;-55
2022/08/15 02:33:37;;;;;;;;;;;;;;;24.91;51.18;100527.63;5048981;28;20025;-56
2022/08/15 02:36:02;;;;;;;;;;;;;;;24.87;51.04;100523.69;5049586;28;20000;-56
2022/08/15 02:38:28;;;;;;;;;;;;;;;24.87;51.33;100520.13;5049039;28;19959;-57
2022/08/15 02:40:53;;;;;;;;;;;;;;;24.87;51.28;100525.50;5046759;28;19963;-57
2022/08/15 02:43:20;;;;;;;;;;;;;;;24.86;51.29;100522.00;5021161;28;20074;-55
2022/08/15 02:45:47;;;;;;;;;;;;;;;24.87;51.21;100520.13;5049900;28;19925;-55
2022/08/15 02:48:13;;;;;;;;;;;;;;;24.85;51.50;100519.47;5052286;28;19974;-54
2022/08/15 02:50:39;;;;;;;;;;;;;;;24.81;51.61;100514.47;5042478;28;21941;-55
2022/08/15 02:53:22;;;;;;;;;;;;;;;24.81;51.69;100516.34;5049448;28;20007;-53
2022/08/15 02:55:48;;;;;;;;;;;;;;;24.79;51.64;100511.16;5051768;28;19920;-57
2022/08/15 02:58:14;;;;;;;;;;;;;;;24.83;52.01;100511.63;5046963;28;20438;-55
2022/08/15 03:00:41;;;;;;;;;;;;;;;24.83;51.90;100511.63;5050670;28;19924;-55
2022/08/15 03:03:08;;;;;;;;;;;;;;;24.84;51.86;100515.97;5041178;28;19991;-54
2022/08/15 03:05:36;;;;;;;;;;;;;;;24.85;51.84;100511.41;5047494;28;21795;-54
2022/08/15 03:08:01;;;;;;;;;;;;;;;24.81;51.79;100509.09;5050753;28;20422;-54
2022/08/15 03:10:27;;;;;;;;;;;;;;;24.80;51.94;100506.59;5052377;28;20415;-54
2022/08/15 03:12:54;;;;;;;;;;;;;;;24.78;52.08;100503.25;5053081;28;19920;-53
2022/08/15 03:15:30;;;;;;;;;;;;;;;24.73;52.14;100511.91;5054582;28;19920;-54
2022/08/15 03:17:55;;;;;;;;;;;;;;;24.69;52.21;100504.38;5048545;28;19928;-55
2022/08/15 03:20:21;;;;;;;;;;;;;;;24.66;52.23;100503.72;5042291;28;19928;-54
2022/08/15 03:22:48;;;;;;;;;;;;;;;24.64;52.35;100505.75;5031022;28;21070;-58
2022/08/15 03:25:14;;;;;;;;;;;;;;;24.61;52.37;100498.06;5045395;28;20280;-53
2022/08/15 03:27:40;;;;;;;;;;;;;;;24.59;52.64;100499.28;5047448;28;19924;-56
2022/08/15 03:30:07;;;;;;;;;;;;;;;24.56;52.57;100500.50;5043926;28;19986;-53
2022/08/15 03:32:40;;;;;;;;;;;;;;;24.54;52.81;100499.84;5047128;28;20011;-53
2022/08/15 03:35:06;;;;;;;;;;;;;;;24.53;52.64;100500.00;5048898;28;19924;-54
2022/08/15 03:37:32;;;;;;;;;;;;;;;24.51;52.78;100503.72;5035065;28;19928;-53
2022/08/15 03:39:57;;;;;;;;;;;;;;;24.51;52.86;100497.53;5052363;28;19931;-55
2022/08/15 03:42:23;;;;;;;;;;;;;;;24.49;52.74;100494.19;5039845;28;19981;-55
2022/08/15 03:44:48;;;;;;;;;;;;;;;24.47;52.84;100488.16;5045846;28;19930;-55
2022/08/15 03:47:14;;;;;;;;;;;;;;;24.45;52.87;100484.81;5053577;28;19925;-55
2022/08/15 03:49:40;;;;;;;;;;;;;;;24.43;52.79;100489.56;5052011;28;20678;-54
2022/08/15 03:52:06;;;;;;;;;;;;;;;24.42;52.80;100486.03;5053064;28;19960;-53
2022/08/15 03:54:31;;;;;;;;;;;;;;;24.42;52.80;100485.22;5043569;28;20411;-55
2022/08/15 03:56:57;;;;;;;;;;;;;;;24.40;52.80;100482.69;5050023;28;19925;-56
2022/08/15 03:59:22;;;;;;;;;;;;;;;24.37;53.09;100487.59;5041334;28;19958;-54
2022/08/15 04:01:47;;;;;;;;;;;;;;;24.32;53.17;100489.00;5044097;28;19935;-54
2022/08/15 04:04:13;;;;;;;;;;;;;;;24.29;53.21;100485.84;5050328;28;19928;-56
2022/08/15 04:06:40;;;;;;;;;;;;;;;24.27;53.27;100486.03;5043729;28;20683;-54
2022/08/15 04:09:06;;;;;;;;;;;;;;;24.26;53.39;100483.53;5045817;28;20081;-54
2022/08/15 04:11:31;;;;;;;;;;;;;;;24.25;53.18;100480.00;5048475;28;20449;-53
2022/08/15 04:13:57;;;;;;;;;;;;;;;24.25;53.40;100481.84;5047445;28;19924;-54
2022/08/15 04:16:23;;;;;;;;;;;;;;;24.24;53.32;100482.88;5048390;28;20407;-56
2022/08/15 04:18:49;;;;;;;;;;;;;;;24.25;53.46;100480.00;5047425;28;19921;-53
2022/08/15 04:21:14;;;;;;;;;;;;;;;24.25;53.44;100477.31;5044630;28;19924;-56
2022/08/15 04:23:44;;;;;;;;;;;;;;;24.23;53.52;100476.66;5050490;28;20015;-54
2022/08/15 04:26:09;;;;;;;;;;;;;;;24.23;53.56;100473.97;5048517;28;20492;-54
2022/08/15 04:28:35;;;;;;;;;;;;;;;24.22;53.57;100477.69;5049162;28;19950;-55
2022/08/15 04:31:03;;;;;;;;;;;;;;;24.25;53.73;100479.16;5051381;28;19956;-53
2022/08/15 04:33:30;;;;;;;;;;;;;;;24.25;53.58;100477.31;5049218;28;20364;-53
2022/08/15 04:35:57;;;;;;;;;;;;;;;24.25;53.50;100477.31;5049978;28;19962;-53
2022/08/15 04:38:22;;;;;;;;;;;;;;;24.25;53.69;100480.00;5049865;28;19925;-54
2022/08/15 04:40:48;;;;;;;;;;;;;;;24.26;53.96;100480.84;5059531;28;19920;-57
2022/08/15 04:43:15;;;;;;;;;;;;;;;24.29;53.91;100473.22;5055883;28;20028;-54
2022/08/15 04:45:41;;;;;;;;;;;;;;;24.33;53.74;100477.22;5050056;28;20018;-54
2022/08/15 04:48:07;;;;;;;;;;;;;;;24.36;53.72;100478.69;5048887;28;19924;-54
2022/08/15 04:50:34;;;;;;;;;;;;;;;24.37;53.67;100477.66;5048886;28;19931;-56
2022/08/15 04:53:00;;;;;;;;;;;;;;;24.37;53.99;100476.84;5052520;28;19917;-58
2022/08/15 04:55:26;;;;;;;;;;;;;;;24.37;53.84;100474.16;5054018;28;19924;-55
2022/08/15 04:57:52;;;;;;;;;;;;;;;24.39;53.84;100477.50;5052334;28;19924;-55
2022/08/15 05:00:20;;;;;;;;;;;;;;;24.38;53.83;100473.97;5048473;28;19924;-57
2022/08/15 05:02:58;;;;;;;;;;;;;;;24.40;53.89;100473.78;5047747;28;20027;-56
2022/08/15 05:05:24;;;;;;;;;;;;;;;24.40;53.94;100465.72;5052214;28;19924;-56
2022/08/15 05:07:49;;;;;;;;;;;;;;;24.39;54.08;100464.06;5049785;28;19927;-56
2022/08/15 05:10:14;;;;;;;;;;;;;;;24.38;53.94;100465.91;5046570;28;20384;-55
2022/08/15 05:12:40;;;;;;;;;;;;;;;24.40;54.14;100463.88;5050613;28;20003;-56
2022/08/15 05:15:06;;;;;;;;;;;;;;;24.41;54.10;100456.66;5031038;28;20371;-54
2022/08/15 05:17:31;;;;;;;;;;;;;;;24.42;54.19;100455.63;5049963;28;19931;-55
2022/08/15 05:19:57;;;;;;;;;;;;;;;24.43;54.18;100457.28;5050014;28;19924;-57
2022/08/15 05:22:22;;;;;;;;;;;;;;;24.43;54.20;100455.44;5049944;28;19928;-53
2022/08/15 05:24:47;;;;;;;;;;;;;;;24.43;54.20;100460.81;5050007;28;19924;-54
2022/08/15 05:27:12;;;;;;;;;;;;;;;24.45;54.30;100455.22;5049109;28;19936;-56
2022/08/15 05:29:38;;;;;;;;;;;;;;;24.45;54.26;100449.84;5059458;28;20050;-55
2022/08/15 05:32:06;;;;;;;;;;;;;;;24.47;54.29;100455.88;5052392;28;19932;-54
2022/08/15 05:34:31;;;;;;;;;;;;;;;24.47;54.46;100448.66;5049190;28;19924;-54
2022/08/15 05:36:56;;;;;;;;;;;;;;;24.50;54.41;100447.44;5054519;28;19924;-53
2022/08/15 05:39:27;;;;;;;;;;;;;;;24.51;54.28;100441.03;5046717;28;19950;-55
2022/08/15 05:41:58;;;;;;;;;;;;;;;24.53;54.36;100441.69;5048589;28;20319;-54
2022/08/15 05:44:38;;;;;;;;;;;;;;;24.55;54.27;100430.75;5046707;28;19928;-55
2022/08/15 05:47:12;;;;;;;;;;;;;;;24.56;54.22;100435.94;5048299;28;19972;-55
2022/08/15 05:49:53;;;;;;;;;;;;;;;24.59;54.25;100440.09;5040600;28;19974;-52
2022/08/15 05:52:36;;;;;;;;;;;;;;;24.61;54.27;100438.88;5049739;28;19928;-55
2022/08/15 05:55:07;;;;;;;;;;;;;;;24.65;54.33;100447.44;5051845;28;19917;-56
2022/08/15 05:57:46;;;;;;;;;;;;;;;24.68;54.37;100440.84;5057464;28;19917;-55
2022/08/15 06:00:13;;;;;;;;;;;;;;;24.70;54.47;100442.31;5048483;28;19935;-52
2022/08/15 06:02:45;;;;;;;;;;;;;;;24.73;54.20;100446.53;5042918;28;20027;-54
2022/08/15 06:05:13;;;;;;;;;;;;;;;24.75;54.42;100439.06;5045399;28;19921;-54
2022/08/15 06:07:41;;;;;;;;;;;;;;;24.77;54.35;100428.94;5039724;28;20279;-54
2022/08/15 06:10:25;;;;;;;;;;;;;;;24.79;54.35;100435.84;5045551;28;19925;-53
2022/08/15 06:12:53;;;;;;;;;;;;;;;24.83;54.27;100436.28;5051498;28;19924;-54
2022/08/15 06:15:21;;;;;;;;;;;;;;;24.87;54.31;100436.72;5043190;28;20384;-55
2022/08/15 06:17:57;;;;;;;;;;;;;;;24.89;54.55;100432.00;5047247;28;19920;-55
2022/08/15 06:20:30;;;;;;;;;;;;;;;24.91;54.32;100436.16;5052763;28;20015;-54
2022/08/15 06:23:11;;;;;;;;;;;;;;;24.94;54.41;100438.47;5038796;28;19920;-55
2022/08/15 06:25:56;;;;;;;;;;;;;;;24.97;54.52;100434.53;5042545;28;19924;-52
2022/08/15 06:28:36;;;;;;;;;;;;;;;25.00;54.47;100438.72;5042593;28;19924;-56
2022/08/15 06:31:14;;;;;;;;;;;;;;;25.02;54.35;100440.19;5043444;28;19928;-57
2022/08/15 06:34:02;;;;;;;;;;;;;;;25.07;54.40;100436.91;5050680;28;19955;-54
2022/08/15 06:36:30;;;;;;;;;;;;;;;25.11;54.41;100438.22;5048159;28;19924;-55
2022/08/15 06:38:55;;;;;;;;;;;;;;;25.15;54.64;100434.13;5046431;28;20311;-53
2022/08/15 06:41:33;;;;;;;;;;;;;;;25.20;54.40;100436.22;5040035;28;19924;-54
2022/08/15 06:43:59;;;;;;;;;;;;;;;25.24;54.65;100438.34;5055583;28;19921;-54
2022/08/15 06:46:30;;;;;;;;;;;;;;;25.29;54.39;100440.44;5038722;28;19916;-57
2022/08/15 06:48:56;;;;;;;;;;;;;;;25.34;54.37;100440.72;5056803;28;19924;-53
2022/08/15 06:51:22;;;;;;;;;;;;;;;25.39;54.29;100440.97;5057417;28;19931;-53
2022/08/15 06:53:47;;;;;;;;;;;;;;;25.44;54.19;100440.41;5037349;28;20449;-54
2022/08/15 06:56:32;;;;;;;;;;;;;;;25.46;54.23;100430.28;5057407;28;20429;-53
2022/08/15 06:58:58;;;;;;;;;;;;;;;25.51;54.22;100438.59;5006159;28;19935;-55
2022/08/15 07:01:23;;;;;;;;;;;;;;;25.55;54.17;100433.66;5053506;28;19920;-54
2022/08/15 07:03:52;;;;;;;;;;;;;;;25.58;54.04;100443.22;5055824;28;19921;-55
2022/08/15 07:06:19;;;;;;;;;;;;;;;25.61;54.08;100432.06;5054621;28;19925;-53
2022/08/15 07:09:16;;;;;;;;;;;;;;;25.65;54.01;100433.31;5055543;28;19924;-53
2022/08/15 07:11:47;;;;;;;;;;;;;;;25.69;53.92;100434.59;5009582;28;19936;-55
2022/08/15 07:14:25;;;;;;;;;;;;;;;25.71;54.01;100430.66;5055433;28;19923;-54
2022/08/15 07:17:03;;;;;;;;;;;;;;;25.74;53.99;100431.28;5053161;28;19927;-53
2022/08/15 07:19:28;;;;;;;;;;;;;;;25.74;53.98;100432.16;5057644;28;20474;-55
2022/08/15 07:21:54;;;;;;;;;;;;;;;25.76;53.82;100430.09;5053010;28;20027;-55
2022/08/15 07:24:19;;;;;;;;;;;;;;;25.79;53.99;100429.66;5052718;28;19971;-56
2022/08/15 07:26:51;;;;;;;;;;;;;;;25.82;54.13;100436.56;5053223;28;19931;-56
2022/08/15 07:29:35;;;;;;;;;;;;;;;25.85;54.15;100438.84;5037033;28;19925;-54
2022/08/15 07:32:07;;;;;;;;;;;;;;;25.89;54.00;100428.50;5055423;28;19924;-53
2022/08/15 07:34:33;;;;;;;;;;;;;;;25.93;53.85;100429.78;5056431;28;19924;-54
2022/08/15 07:36:59;;;;;;;;;;;;;;;25.96;53.70;100440.16;5056280;28;19985;-53
2022/08/15 07:39:27;;;;;;;;;;;;;;;25.99;53.58;100426.28;5054392;28;19924;-56
2022/08/15 07:41:53;;;;;;;;;;;;;;;26.02;53.77;100433.97;5053038;28;19925;-53
2022/08/15 07:44:18;;;;;;;;;;;;;;;26.05;53.62;100428.19;5058679;28;19925;-53
2022/08/15 07:46:56;;;;;;;;;;;;;;;26.08;53.80;100435.88;5059251;28;19935;-54
2022/08/15 07:49:25;;;;;;;;;;;;;;;26.10;53.60;100436.50;5055016;28;19932;-53
2022/08/15 07:52:17;;;;;;;;;;;;;;;26.16;53.62;100434.94;5049096;28;19976;-53
2022/08/15 07:54:43;;;;;;;;;;;;;;;26.21;53.48;100431.63;5055981;28;20600;-53
2022/08/15 07:57:18;;;;;;;;;;;;;;;26.24;53.52;100436.63;5055640;28;20215;-54
2022/08/15 08:00:01;;;;;;;;;;;;;;;26.28;53.15;100436.03;5049568;28;19924;-52
2022/08/15 08:02:33;;;;;;;;;;;;;;;26.33;53.09;100441.63;5049290;28;19925;-56
2022/08/15 08:05:00;;;;;;;;;;;;;;;26.39;53.04;100436.47;5052643;28;20043;-54
2022/08/15 08:07:32;;;;;;;;;;;;;;;26.42;53.18;100444.16;5054672;28;19924;-57
2022/08/15 08:10:17;;;;;;;;;;;;;;;26.46;53.00;100443.56;5053074;28;19924;-54
2022/08/15 08:12:58;;;;;;;;;;;;;;;26.51;53.07;100434.03;5058854;28;20015;-56
2022/08/15 08:15:23;;;;;;;;;;;;;;;26.54;53.01;100434.47;5055752;28;20617;-55
2022/08/15 08:18:03;;;;;;;;;;;;;;;26.58;52.88;100432.19;5060011;28;19917;-55
2022/08/15 08:20:29;;;;;;;;;;;;;;;26.63;52.78;100440.50;5058004;28;19955;-55
2022/08/15 08:22:57;;;;;;;;;;;;;;;26.67;52.63;100435.53;5058333;28;19916;-56
2022/08/15 08:25:25;;;;;;;;;;;;;;;26.71;52.52;100434.91;5056685;28;20042;-53
2022/08/15 08:28:06;;;;;;;;;;;;;;;26.75;52.50;100428.09;5057862;28;19920;-56
2022/08/15 08:30:50;;;;;;;;;;;;;;;26.79;52.39;100425.84;5039750;28;19924;-55
2022/08/15 08:33:25;;;;;;;;;;;;;;;26.83;52.27;100423.59;5060057;28;19947;-55
2022/08/15 08:35:55;;;;;;;;;;;;;;;26.85;52.35;100416.13;5059444;28;19974;-54
2022/08/15 08:38:21;;;;;;;;;;;;;;;26.88;52.20;100421.09;5058365;28;20023;-56
2022/08/15 08:41:25;;;;;;;;;;;;;;;26.89;52.27;100414.66;5059493;28;20015;-53
2022/08/15 08:44:10;;;;;;;;;;;;;;;26.89;52.08;100412.81;5058183;28;20038;-55
2022/08/15 08:46:50;;;;;;;;;;;;;;;26.91;52.26;100415.28;5058256;28;19974;-54
2022/08/15 08:49:25;;;;;;;;;;;;;;;26.91;52.31;100413.44;5057392;28;19968;-58
2022/08/15 08:51:57;;;;;;;;;;;;;;;26.93;51.98;100413.22;5054682;28;20632;-55
2022/08/15 08:54:26;;;;;;;;;;;;;;;26.96;51.92;100406.56;5060486;28;20051;-53
2022/08/15 08:56:53;;;;;;;;;;;;;;;26.98;51.88;100415.28;5059210;28;20007;-54
2022/08/15 08:59:23;;;;;;;;;;;;;;;26.99;51.85;100417.81;5057726;28;19928;-55
2022/08/15 09:01:56;;;;;;;;;;;;;;;27.01;51.75;100413.00;5058271;28;19927;-55
2022/08/15 09:04:24;;;;;;;;;;;;;;;27.04;51.84;100414.50;5054931;28;20486;-54
2022/08/15 09:06:50;;;;;;;;;;;;;;;27.06;51.96;100407.84;5055010;28;19920;-53
2022/08/15 09:09:34;;;;;;;;;;;;;;;27.10;51.73;100402.03;5044144;28;20453;-54
2022/08/15 09:12:02;;;;;;;;;;;;;;;27.12;51.63;100400.78;5057335;28;19931;-56
2022/08/15 09:14:38;;;;;;;;;;;;;;;27.16;51.76;100406.59;5055040;28;19920;-53
2022/08/15 09:17:08;;;;;;;;;;;;;;;27.17;51.58;100400.16;5059491;28;19932;-56
2022/08/15 09:19:45;;;;;;;;;;;;;;;27.19;51.44;100401.63;5058565;28;19921;-56
2022/08/15 09:22:10;;;;;;;;;;;;;;;27.22;51.52;100398.50;5056851;28;19928;-53
2022/08/15 09:24:36;;;;;;;;;;;;;;;27.24;51.13;100392.91;5059083;28;19925;-56
2022/08/15 09:27:01;;;;;;;;;;;;;;;27.26;50.94;100396.22;5058519;28;19916;-54
2022/08/15 09:29:28;;;;;;;;;;;;;;;27.29;51.13;100398.50;5060170;28;19959;-54
2022/08/15 09:32:11;;;;;;;;;;;;;;;27.32;51.08;100391.84;5055860;28;19920;-54
2022/08/15 09:35:02;;;;;;;;;;;;;;;27.35;50.93;100384.16;5058582;28;19929;-54
2022/08/15 09:37:36;;;;;;;;;;;;;;;27.40;50.88;100386.22;5053586;28;19939;-55
2022/08/15 09:40:15;;;;;;;;;;;;;;;27.46;50.74;100384.59;5056606;28;19927;-53
2022/08/15 09:42:59;;;;;;;;;;;;;;;27.51;50.60;100376.69;5057258;28;19958;-53
2022/08/15 09:45:32;;;;;;;;;;;;;;;27.56;50.31;100385.00;5060656;28;20426;-52
2022/08/15 09:48:09;;;;;;;;;;;;;;;27.61;50.32;100379.78;5063382;28;19956;-55
2022/08/15 09:50:40;;;;;;;;;;;;;;;27.66;49.85;100374.59;5057150;28;20291;-56
2022/08/15 09:53:30;;;;;;;;;;;;;;;27.68;50.13;100369.81;5059611;28;20379;-54
2022/08/15 09:56:01;;;;;;;;;;;;;;;27.69;49.87;100368.78;5058477;28;20439;-55
2022/08/15 09:58:31;;;;;;;;;;;;;;;27.71;50.02;100357.72;5043030;28;20400;-53
2022/08/15 10:01:06;;;;;;;;;;;;;;;27.71;50.06;100357.72;5058825;28;19913;-54
2022/08/15 10:03:43;;;;;;;;;;;;;;;27.73;49.63;100357.53;5061252;28;19924;-54
2022/08/15 10:06:10;;;;;;;;;;;;;;;27.76;49.88;100352.53;5058045;28;19970;-53
2022/08/15 10:08:50;;;;;;;;;;;;;;;27.81;49.64;100346.50;5060643;28;19917;-54
2022/08/15 10:11:23;;;;;;;;;;;;;;;27.86;49.59;100352.09;5059594;28;20494;-53
2022/08/15 10:13:55;;;;;;;;;;;;;;;27.92;49.48;100351.22;5058186;28;20286;-53
2022/08/15 10:16:36;;;;;;;;;;;;;;;27.98;49.32;100344.16;5054894;28;20351;-53
2022/08/15 10:19:04;;;;;;;;;;;;;;;28.02;49.25;100336.44;5055245;28;19921;-53
2022/08/15 10:21:35;;;;;;;;;;;;;;;28.06;48.77;100340.38;5057426;28;20402;-53
2022/08/15 10:24:06;;;;;;;;;;;;;;;28.10;48.61;100336.22;5055589;28;19963;-54
2022/08/15 10:26:34;;;;;;;;;;;;;;;28.12;48.52;100337.69;5055443;28;19982;-53
2022/08/15 10:29:00;;;;;;;;;;;;;;;28.17;48.50;100337.03;5056116;28;19931;-54
2022/08/15 10:31:28;;;;;;;;;;;;;;;28.21;48.41;100338.25;5058059;28;19920;-57
2022/08/15 10:33:57;;;;;;;;;;;;;;;28.25;48.38;100331.34;5054191;28;19917;-53
2022/08/15 10:36:28;;;;;;;;;;;;;;;28.28;48.23;100339.03;5056422;28;20355;-53
2022/08/15 10:39:08;;;;;;;;;;;;;;;28.33;48.16;100335.69;5057060;28;19917;-53
2022/08/15 10:41:34;;;;;;;;;;;;;;;28.38;47.98;100329.63;5052197;28;19927;-53
2022/08/15 10:44:20;;;;;;;;;;;;;;;28.42;48.27;100331.69;5055528;28;19920;-53
2022/08/15 10:46:49;;;;;;;;;;;;;;;28.45;48.07;100327.72;5053884;28;20430;-52
2022/08/15 10:49:15;;;;;;;;;;;;;;;28.49;47.56;100323.53;5055414;28;20410;-57
2022/08/15 10:51:42;;;;;;;;;;;;;;;28.52;47.67;100323.09;5054921;28;19928;-56
2022/08/15 10:54:09;;;;;;;;;;;;;;;28.55;47.75;100322.66;5054050;28;20349;-53
2022/08/15 10:56:37;;;;;;;;;;;;;;;28.62;47.59;100333.44;5055445;28;19947;-53
2022/08/15 10:59:08;;;;;;;;;;;;;;;28.68;47.06;100323.59;5054323;28;19985;-53
2022/08/15 11:01:35;;;;;;;;;;;;;;;28.72;47.12;100333.81;5054007;28;20292;-55
2022/08/15 11:04:07;;;;;;;;;;;;;;;28.74;46.66;100328.19;5055961;28;19928;-52
2022/08/15 11:06:38;;;;;;;;;;;;;;;28.74;46.57;100331.72;5054374;28;19935;-54
2022/08/15 11:09:05;;;;;;;;;;;;;;;28.77;46.42;100338.59;5053386;28;19927;-54
2022/08/15 11:11:32;;;;;;;;;;;;;;;28.81;46.74;100325.44;5054180;28;20383;-55
2022/08/15 11:13:59;;;;;;;;;;;;;;;28.82;46.36;100333.31;5057809;28;19935;-53
2022/08/15 11:16:30;;;;;;;;;;;;;;;28.84;46.65;100330.41;5053020;28;19971;-55
2022/08/15 11:18:58;;;;;;;;;;;;;;;28.85;46.57;100327.47;5054707;28;19977;-53
2022/08/15 11:21:23;;;;;;;;;;;;;;;28.87;46.12;100322.66;5052379;28;19925;-53
2022/08/15 11:23:54;;;;;;;;;;;;;;;28.86;46.32;100334.53;5052647;28;19926;-53
2022/08/15 11:26:27;;;;;;;;;;;;;;;28.82;46.26;100325.19;5055749;28;19924;-55
2022/08/15 11:29:06;;;;;;;;;;;;;;;28.80;46.18;100323.75;5054743;28;19932;-52
2022/08/15 11:31:31;;;;;;;;;;;;;;;28.81;46.19;100320.00;5055487;28;20031;-54
2022/08/15 11:33:59;;;;;;;;;;;;;;;28.82;46.18;100322.50;5057916;28;20016;-54
2022/08/15 11:36:26;;;;;;;;;;;;;;;28.83;46.18;100317.91;5058332;28;19916;-53
2022/08/15 11:39:13;;;;;;;;;;;;;;;28.82;46.36;100311.66;5056730;28;20425;-53
2022/08/15 11:41:51;;;;;;;;;;;;;;;;;;;;;
2022/08/15 11:44:18;;;;;;;;;;;;;;;28.81;46.41;100304.63;5057898;28;20333;-54
2022/08/15 11:47:05;;;;;;;;;;;;;;;28.82;46.41;100303.53;5064257;28;19978;-56
2022/08/15 11:49:33;;;;;;;;;;;;;;;28.81;46.06;100299.19;5062570;28;19955;-55
2022/08/15 11:52:01;;;;;;;;;;;;;;;28.83;46.01;100305.19;5044611;28;20463;-55
2022/08/15 11:54:26;;;;;;;;;;;;;;;28.86;46.04;100306.66;5059263;28;20008;-54
2022/08/15 11:56:56;;;;;;;;;;;;;;;28.88;45.72;100308.09;5049232;28;20015;-55
2022/08/15 11:59:36;;;;;;;;;;;;;;;28.92;45.84;100303.03;5063931;28;19970;-54
2022/08/15 12:02:03;;;;;;;;;;;;;;;28.94;45.29;100300.13;5059587;28;19917;-54
2022/08/15 12:04:33;;;;;;;;;;;;;;;28.97;45.67;100299.66;5058759;28;20484;-54
2022/08/15 12:07:17;;;;;;;;;;;;;;;28.99;45.52;100293.00;5058393;28;19935;-54
2022/08/15 12:10:08;;;;;;;;;;;;;;;29.06;45.13;100290.22;5057085;28;19932;-53
2022/08/15 12:12:37;;;;;;;;;;;;;;;29.14;44.90;100286.41;5056456;28;19924;-54
2022/08/15 12:15:08;;;;;;;;;;;;;;;29.22;44.86;100274.47;5058467;28;19978;-54
2022/08/15 12:17:34;;;;;;;;;;;;;;;29.28;45.07;100265.41;5058883;28;19928;-55
2022/08/15 12:20:00;;;;;;;;;;;;;;;29.32;44.63;100272.03;5060772;28;19916;-55
2022/08/15 12:22:29;;;;;;;;;;;;;;;29.39;44.75;100275.56;5056949;28;19942;-54
2022/08/15 12:24:55;;;;;;;;;;;;;;;29.47;44.73;100264.41;5056222;28;19935;-54
2022/08/15 12:27:20;;;;;;;;;;;;;;;29.54;43.99;100263.53;5059169;28;19921;-53
2022/08/15 12:29:45;;;;;;;;;;;;;;;29.59;43.85;100266.34;5055851;28;19935;-54
2022/08/15 12:32:12;;;;;;;;;;;;;;;29.63;43.96;100263.00;5060219;28;19917;-55
2022/08/15 12:34:45;;;;;;;;;;;;;;;29.69;43.61;100261.25;5057715;28;19928;-56
2022/08/15 12:37:13;;;;;;;;;;;;;;;29.77;43.62;100260.09;5060137;28;19920;-55
2022/08/15 12:39:40;;;;;;;;;;;;;;;29.84;43.36;100258.13;5057911;28;20385;-54
2022/08/15 12:42:06;;;;;;;;;;;;;;;29.92;43.12;100254.28;5056503;28;19966;-54
2022/08/15 12:44:36;;;;;;;;;;;;;;;29.96;43.28;100255.50;5058489;28;19917;-54
2022/08/15 12:47:01;;;;;;;;;;;;;;;30.00;43.01;100254.00;5058229;28;20812;-54
2022/08/15 12:49:26;;;;;;;;;;;;;;;29.99;42.97;100255.06;5040618;28;19927;-55
2022/08/15 12:51:52;;;;;;;;;;;;;;;30.01;42.77;100246.69;5057426;28;19940;-54
2022/08/15 12:54:17;;;;;;;;;;;;;;;30.05;42.73;100254.13;5057352;28;19928;-56